CST,Max TemperatureF,Mean TemperatureF,Min TemperatureF,Max Dew PointF,MeanDew PointF,Min DewpointF,Max Humidity, Mean Humidity, Min Humidity, Max Sea Level PressureIn, Mean Sea Level PressureIn, Min Sea Level PressureIn, Max VisibilityMiles, Mean VisibilityMiles, Min VisibilityMiles, Max Wind SpeedMPH, Mean Wind SpeedMPH, Max Gust SpeedMPH,PrecipitationIn, CloudCover, Events, WindDirDegrees
2013-1-1,66,57,48,61,54,45,94,88,82,30.11,30.01,29.93,10,8,1,16,7,25,0.03,7,,298
2013-1-2,46,42,39,43,39,36,93,84,76,30.25,30.17,30.08,10,7,2,12,8,,0.00,8,,345
2013-1-3,48,39,30,36,28,23,87,66,37,30.40,30.31,30.23,10,9,3,13,7,17,0.00,1,,351
2013-1-4,57,44,30,32,26,23,80,58,29,30.48,30.40,30.36,10,10,10,10,5,,0.00,0,,4
2013-1-5,51,43,35,39,32,28,87,67,44,30.41,30.33,30.26,10,10,10,9,4,,0.00,4,,31
2013-1-6,51,44,37,41,39,34,93,82,62,30.33,30.27,30.24,10,8,2,12,6,16,0.00,5,,18
2013-1-7,57,44,32,37,34,28,93,73,41,30.36,30.28,30.20,10,8,2,9,4,,0.00,0,,41
2013-1-8,59,49,39,54,45,34,94,82,70,30.26,30.20,30.14,10,10,4,7,3,,0.00,5,,67
2013-1-9,64,60,55,63,58,52,94,93,88,30.25,30.21,30.16,10,4,0,13,6,16,0.00,7,,79
2013-1-10,71,66,60,64,62,57,94,89,78,30.23,30.13,30.00,10,9,2,15,9,22,0.00,6,Thunderstorm,136
2013-1-11,71,66,62,66,63,59,94,90,83,30.13,30.07,30.04,10,8,2,13,8,,0.00,7,,176
2013-1-12,77,72,68,66,65,64,94,84,69,30.09,30.01,29.94,10,9,3,15,10,25,0.00,7,,164
2013-1-13,71,58,46,68,60,43,93,84,78,30.10,29.97,29.85,10,10,1,22,12,41,0.06,8,Thunderstorm,193
2013-1-14,46,42,37,43,38,34,93,88,81,30.21,30.14,30.09,10,6,1,15,9,24,0.55,8,,17
2013-1-15,44,40,37,43,39,36,93,89,81,30.11,30.04,29.99,10,4,0,13,6,16,0.07,8,,8
2013-1-16,41,38,35,37,35,34,93,89,87,30.11,30.06,30.01,10,6,2,12,7,16,0.00,8,,333
2013-1-17,48,40,33,34,32,28,93,73,50,30.42,30.25,30.09,10,8,2,17,8,26,0.00,4,,313
2013-1-18,55,44,32,36,30,28,87,70,36,30.56,30.46,30.40,10,9,2,12,7,16,0.00,0,,25
2013-1-19,60,45,30,45,34,27,93,74,44,30.41,30.33,30.25,10,10,3,8,1,,0.00,0,,177
2013-1-20,64,50,35,45,35,28,93,70,26,30.29,30.22,30.16,10,9,3,8,1,,0.00,0,,352
2013-1-21,64,48,33,43,37,30,93,68,40,30.25,30.20,30.14,10,10,9,12,3,16,0.00,0,,360
2013-1-22,55,45,35,36,28,21,93,60,35,30.40,30.33,30.25,10,10,9,9,4,,0.00,2,,44
2013-1-23,66,50,33,46,39,30,93,69,43,30.40,30.33,30.28,10,9,3,8,2,,0.00,2,,215
2013-1-24,71,56,41,55,49,37,93,74,50,30.35,30.28,30.22,10,8,0,10,3,,0.00,2,,235
2013-1-25,73,60,46,54,52,45,94,73,46,30.25,30.20,30.13,10,8,0,14,6,21,0.00,1,,199
2013-1-26,66,57,48,55,52,45,94,83,68,30.27,30.23,30.19,10,7,0,9,2,,0.00,5,,45
2013-1-27,71,58,44,55,49,41,94,77,46,30.32,30.26,30.23,10,7,0,15,4,21,0.00,2,,153
2013-1-28,75,66,57,61,57,55,94,79,53,30.29,30.22,30.15,10,7,1,12,8,17,0.00,5,,153
2013-1-29,78,71,64,64,63,61,94,80,61,30.14,29.98,29.79,10,8,2,22,10,34,0.00,7,,167
2013-1-30,73,55,37,66,47,27,88,71,44,30.15,29.83,29.65,10,9,2,20,12,33,0.15,5,Thunderstorm,244
2013-1-31,59,46,32,34,28,23,87,59,27,30.31,30.23,30.16,10,10,10,10,4,18,0.00,0,,263